Mc Comb/Pike County/John E Lewis Field
KMCB : now visible

Airfield :











YOU CAN JOIN US ON...

 
LOGIN :

Register | Disclaimer

   EN    FR    IT 

 









Legend :    VFR   Marginal VFR   IFR   Intensive IFR   Very Intensive IFR
Visi :
Ceiling :
>= 8 km
>= 3000ft
5 to 8 km
1000 to 3000 ft
1500m to 5 km
500 to 1000 ft
800 to 1500m
200 to 500 ft
< 800m
< 200 ft
Symbols :   Thunderstorms  Fog  Heavy snow  Heavy precipitations  Wind > 20 kt







- Airport Elevation : 413 ft


KMCB - Mc Comb/Pike County/John E Lewis Field

CURRENT METAR :
  • 191407Z AUTO 26004KT 10SM BKN013 28/24 A3012 RMK AO2 T02830244

EXPIRED METARs :
  • 191353Z AUTO 24005KT 10SM SCT011 28/24 A3012 RMK AO2 SLP193 T02830244
  • 191310Z AUTO 00000KT 10SM FEW008 27/24 A3010 RMK AO2 T02720244
  • 191253Z AUTO 00000KT 10SM CLR 27/24 A3009 RMK AO2 SLP183 T02670239
  • 191153Z AUTO 00000KT 9SM CLR 23/22 A3007 RMK AO2 SLP176 T02330222 10256 20228 53016

TAF KMCB
Valid from the 19 at 12:00 until the 20 at 12:00 UTC


191120Z 1912/2012 00000KT P6SM SCT250
FM192000 20005KT P6SM FEW035 SCT250
FM201100 00000KT P6SM SCT110
KZHU FIR / North America



MET'MAP, your aeronautical weather chart ! - Copyright ORBIFLY December 2007 - Disclaimer

ORBIFLY MET'MAP TEAM :

Programming & Development : Alexandra Zaïnal
Concept & Development : Baudouin d'Aumeries
Co-Development & Prog : Marc-Olivier Méhu
Technical & hardware support : Manuel Goepfert

Contact : metmap@orbifly.com




SOURCES & CREDITS :

   NOAA       Earth
Advisory